Weather History for Cortez, CO

Change the Weather History Date:

Wednesday, December 19, 2012

  Actual Average Record
Temperature  
Mean Temperature 21 °F 28 °F  
Max Temperature 39 °F 41 °F 53 °F (2013)
Min Temperature 3 °F 14 °F 3 °F (2012)
Degree Days  
Heating Degree Days 44 37  
Month to date heating degree days 626 681  
Since 1 July heating degree days 1930 2206  
Cooling Degree Days 0 0  
Month to date cooling degree days 0 0  
Year to date cooling degree days 746 426  
Moisture  
Dew Point 21 °F    
Average Humidity 71    
Maximum Humidity 92    
Minimum Humidity 50    
Precipitation  
Precipitation 0.10 in 0.03 in 0.19 in (2006)
Month to date precipitation 0.82 0.49  
Year to date precipitation 7.40 13.22  
Sea Level Pressure  
Sea Level Pressure 29.73 in    
Wind  
Wind Speed 12 mph (West)    
Max Wind Speed 24 mph    
Max Gust Speed 33 mph    
Visibility 4 miles    
Events Fog , Snow    
T = Trace of Precipitation, MM = Missing Value Source: NWS Daily Summary

Daily Weather History Graph

Daily Weather History Graph

Search for Another Location

Airport:

Trip Planner

Search our weather history database for the weather conditions in past years. The results will help you decide how hot, cold, wet, or windy it might be!

Date:

Astronomy

Dec. 19, 2012 Rise Set
Actual Time 7:24 AM MST 4:59 PM MST
Civil Twilight 6:54 AM MST 5:28 PM MST
Nautical Twilight 6:22 AM MST 6:01 PM MST
Astronomical Twilight 5:50 AM MST 6:33 PM MST
Moon 11:43 AM MST (12/19) No Moon Set
Length of Visible Light 10h 34m
Length of Day
9h 35m
Waxing Crescent, 45% of the Moon is Illuminated
Dec 19
Waxing Crescent
Dec 19
First Quarter
Dec 28
Full
Jan 4
Last Quarter
Jan 11
New

Hourly Weather History & Observations

Time (MST) Temp. Windchill Dew Point Humidity Pressure Visibility Wind Dir Wind Speed Gust Speed Precip Events Conditions
12:53 AM 37.9 °F 29.6 °F 28.9 °F 70% 29.50 in 10.0 mi SSW 13.8 mph - N/A   Overcast
1:22 AM 35.6 °F 29.2 °F 30.2 °F 81% 29.55 in 2.5 mi WSW 8.1 mph - 0.04 in Snow Light Snow
1:24 AM 35.6 °F 29.9 °F 30.2 °F 81% 29.56 in 3.0 mi SW 6.9 mph - 0.05 in Snow Light Snow
1:38 AM 33.8 °F 22.2 °F 30.2 °F 87% 29.58 in 2.0 mi WNW 20.7 mph 26.5 mph 0.07 in Snow Light Snow
1:41 AM 33.8 °F 22.8 °F 30.2 °F 87% 29.58 in 1.2 mi WNW 18.4 mph 26.5 mph 0.07 in Snow Light Snow
1:43 AM 33.8 °F 23.9 °F 30.2 °F 87% 29.59 in 1.0 mi WNW 15.0 mph 26.5 mph 0.08 in Snow Light Snow
1:50 AM 33.8 °F 24.8 °F 30.2 °F 87% 29.58 in 0.8 mi West 12.7 mph 24.2 mph 0.08 in Snow Light Snow
1:53 AM 32.0 °F 24.2 °F 30.9 °F 96% 29.54 in 0.8 mi West 9.2 mph 24.2 mph 0.08 in Snow Light Snow
2:00 AM 32.0 °F 26.4 °F 30.2 °F 93% 29.58 in 1.5 mi SSW 5.8 mph - 0.00 in Snow Light Snow
2:04 AM 32.0 °F - 30.2 °F 93% 29.58 in 2.5 mi Calm Calm - 0.00 in Snow Light Snow
2:12 AM 32.0 °F 27.5 °F 30.2 °F 93% 29.58 in 5.0 mi Variable 4.6 mph - 0.00 in Snow Light Snow
2:38 AM 32.0 °F 26.4 °F 28.4 °F 87% 29.60 in 2.5 mi West 5.8 mph - 0.01 in Snow Light Snow
2:44 AM 32.0 °F 27.5 °F 28.4 °F 87% 29.58 in 2.0 mi West 4.6 mph - 0.01 in Snow Light Snow
2:51 AM 32.0 °F 23.0 °F 28.4 °F 87% 29.59 in 1.5 mi West 11.5 mph - 0.01 in Snow Light Snow
2:53 AM 32.0 °F 23.0 °F 28.9 °F 88% 29.56 in 1.5 mi West 11.5 mph - 0.01 in Snow Light Snow
2:55 AM 32.0 °F 23.6 °F 28.4 °F 87% 29.59 in 1.2 mi West 10.4 mph - 0.00 in Snow Light Snow
3:12 AM 30.2 °F 21.9 °F 28.4 °F 93% 29.59 in 1.5 mi West 9.2 mph - 0.01 in Snow Light Snow
3:29 AM 30.2 °F 20.2 °F 28.4 °F 93% 29.58 in 2.5 mi WNW 12.7 mph - 0.01 in Snow Light Snow
3:38 AM 30.2 °F 22.6 °F 28.4 °F 93% 29.58 in 6.0 mi WNW 8.1 mph - 0.01 in Snow Light Snow
3:53 AM 32.0 °F 23.6 °F 27.0 °F 82% 29.56 in 9.0 mi South 10.4 mph 18.4 mph 0.01 in   Overcast
4:53 AM 30.9 °F 27.5 °F 24.1 °F 76% 29.53 in 10.0 mi North 3.5 mph - 0.00 in   Overcast
5:38 AM 30.2 °F 23.4 °F 24.8 °F 80% 29.59 in 3.0 mi SW 6.9 mph - 0.00 in Snow Light Snow
5:50 AM 30.2 °F 19.8 °F 26.6 °F 86% 29.58 in 2.0 mi South 13.8 mph - 0.00 in Snow Light Snow
5:53 AM 30.0 °F 20.0 °F 26.1 °F 85% 29.56 in 1.5 mi South 12.7 mph - 0.00 in Snow Light Snow
6:00 AM 30.2 °F 21.9 °F 26.6 °F 86% 29.58 in 1.0 mi South 9.2 mph - 0.00 in Snow Light Snow
6:08 AM 28.4 °F 20.4 °F 26.6 °F 93% 29.57 in 2.0 mi SSE 8.1 mph - 0.00 in Snow Light Snow
6:11 AM 28.4 °F 22.2 °F 26.6 °F 93% 29.57 in 3.0 mi South 5.8 mph - 0.00 in Snow Light Snow
6:17 AM 28.4 °F 23.3 °F 26.6 °F 93% 29.57 in 7.0 mi South 4.6 mph - 0.00 in Snow Light Snow
6:19 AM 28.4 °F 23.3 °F 26.6 °F 93% 29.56 in 8.0 mi South 4.6 mph - 0.00 in Snow Light Snow
6:28 AM 28.4 °F 23.3 °F 24.8 °F 86% 29.56 in 10.0 mi SE 4.6 mph - 0.00 in   Overcast
6:53 AM 27.0 °F 18.7 °F 24.1 °F 89% 29.55 in 10.0 mi West 8.1 mph - 0.00 in   Overcast
7:38 AM 28.4 °F 17.0 °F 26.6 °F 93% 29.60 in 2.0 mi SSW 15.0 mph - 0.00 in Snow Light Snow
7:40 AM 28.4 °F 16.6 °F 26.6 °F 93% 29.60 in 1.2 mi SSW 16.1 mph - 0.00 in Snow Light Snow
7:43 AM 28.4 °F 18.0 °F 26.6 °F 93% 29.61 in 0.8 mi SSW 12.7 mph - 0.00 in Snow Light Snow
7:53 AM 28.0 °F 18.6 °F 26.1 °F 92% 29.61 in 0.5 mi SW 10.4 mph - 0.00 in Fog , Snow Snow
7:58 AM 28.4 °F 19.7 °F 24.8 °F 86% 29.63 in 1.0 mi WSW 9.2 mph - 0.00 in Snow Light Snow
8:06 AM 28.4 °F 21.2 °F 24.8 °F 86% 29.63 in 1.5 mi WSW 6.9 mph - 0.00 in Snow Light Snow
8:14 AM 26.6 °F 16.8 °F 21.2 °F 80% 29.64 in 2.5 mi North 10.4 mph 16.1 mph 0.00 in Snow Light Snow
8:22 AM 24.8 °F 12.4 °F 19.4 °F 80% 29.64 in 8.0 mi NNW 15.0 mph 24.2 mph 0.00 in Snow Light Snow
8:30 AM 23.0 °F 8.7 °F 17.6 °F 80% 29.66 in 1.5 mi NNW 18.4 mph 25.3 mph 0.00 in Snow Light Snow
8:32 AM 23.0 °F 8.3 °F 17.6 °F 80% 29.66 in 0.8 mi NNW 19.6 mph 25.3 mph 0.00 in Snow Light Snow
8:42 AM 21.2 °F 8.9 °F 17.6 °F 86% 29.67 in 0.5 mi NNW 12.7 mph 25.3 mph 0.00 in Fog , Snow Snow
8:53 AM 21.9 °F 14.5 °F 18.0 °F 85% 29.70 in 1.0 mi NW 5.8 mph 17.3 mph 0.00 in Snow Light Snow
8:59 AM 21.2 °F 11.7 °F 17.6 °F 86% 29.70 in 2.0 mi NW 8.1 mph - 0.00 in Snow Light Snow
9:09 AM 21.2 °F 10.1 °F 15.8 °F 80% 29.71 in 1.8 mi West 10.4 mph 23.0 mph 0.00 in Snow Light Snow
9:12 AM 21.2 °F 10.1 °F 15.8 °F 80% 29.71 in 2.0 mi NW 10.4 mph 21.9 mph 0.00 in Snow Light Snow
9:20 AM 21.2 °F 9.5 °F 15.8 °F 80% 29.72 in 2.5 mi West 11.5 mph 26.5 mph 0.00 in Snow Light Snow
9:27 AM 21.2 °F 9.5 °F 15.8 °F 80% 29.72 in 3.0 mi WNW 11.5 mph 25.3 mph 0.00 in Snow Light Snow
9:39 AM 21.2 °F 7.3 °F 15.8 °F 80% 29.73 in 2.0 mi NW 16.1 mph 27.6 mph 0.00 in Snow Light Snow
9:46 AM 21.2 °F 6.8 °F 15.8 °F 80% 29.74 in 1.5 mi NW 17.3 mph 25.3 mph 0.00 in Snow Light Snow
9:53 AM 21.0 °F 6.6 °F 15.1 °F 78% 29.76 in 2.0 mi WNW 17.3 mph 25.3 mph 0.00 in Snow Light Snow
10:07 AM 21.2 °F 6.8 °F 14.0 °F 74% 29.76 in 3.0 mi WNW 17.3 mph 29.9 mph 0.00 in Snow Light Snow
10:53 AM 24.1 °F 8.7 °F 14.0 °F 65% 29.82 in 7.0 mi WNW 23.0 mph 31.1 mph 0.00 in   Overcast
11:53 AM 25.0 °F 13.6 °F 12.9 °F 60% 29.88 in 10.0 mi WNW 12.7 mph 21.9 mph N/A   Mostly Cloudy
12:53 PM 25.0 °F 11.7 °F 10.0 °F 53% 29.90 in 10.0 mi NW 17.3 mph 26.5 mph N/A   Mostly Cloudy
1:53 PM 26.1 °F 11.6 °F 12.0 °F 55% 29.97 in 10.0 mi WNW 21.9 mph 29.9 mph N/A   Clear
2:53 PM 25.0 °F 10.9 °F 10.0 °F 53% 30.01 in 10.0 mi NW 19.6 mph 29.9 mph N/A   Clear
3:53 PM 24.1 °F 10.6 °F 8.1 °F 51% 30.07 in 10.0 mi NW 17.3 mph 26.5 mph N/A   Clear
4:53 PM 21.0 °F 7.6 °F 6.1 °F 53% 30.17 in 10.0 mi NW 15.0 mph - N/A   Clear
5:53 PM 19.0 °F 9.0 °F 5.0 °F 54% 30.22 in 10.0 mi WNW 8.1 mph - N/A   Clear
6:53 PM 16.0 °F 6.3 °F 3.0 °F 57% 30.29 in 10.0 mi NW 6.9 mph - N/A   Clear
7:53 PM 10.0 °F 0.4 °F 1.9 °F 70% 30.34 in 10.0 mi NE 5.8 mph - N/A   Clear
8:53 PM 10.0 °F -2.9 °F -0.0 °F 64% 30.38 in 10.0 mi East 9.2 mph - N/A   Clear
9:53 PM 8.1 °F -3.2 °F -0.9 °F 67% 30.42 in 10.0 mi ENE 6.9 mph - N/A   Clear
10:53 PM 3.9 °F -9.4 °F -2.9 °F 73% 30.46 in 10.0 mi NE 8.1 mph - N/A   Clear
11:53 PM 3.0 °F -13.3 °F -4.0 °F 73% 30.47 in 10.0 mi ENE 11.5 mph - N/A   Clear